Time,TemperatureF,DewpointF,PressureIn,WindDirection,WindDirectionDegrees,WindSpeedMPH,WindSpeedGustMPH,Humidity,HourlyPrecipIn,Conditions,Clouds,dailyrainin,SoftwareType,DateUTC
2013-04-04 00:00:00,42.1,37.3,30.11,NNE,23,2.9,6.0,83,0.06,,,0.00,WUHU216HW,2013-04-04 05:00:00,
2013-04-04 00:05:00,42.1,37.6,30.11,NNE,23,4.3,6.0,84,0.07,,,0.01,WUHU216HW,2013-04-04 05:05:00,
2013-04-04 00:10:00,42.1,37.6,30.10,North,0,4.7,6.3,84,0.06,,,0.01,WUHU216HW,2013-04-04 05:10:00,
2013-04-04 00:15:00,41.9,37.5,30.10,North,0,3.8,6.3,84,0.05,,,0.01,WUHU216HW,2013-04-04 05:15:00,
2013-04-04 00:20:00,41.9,37.5,30.10,North,0,4.3,6.9,84,0.04,,,0.02,WUHU216HW,2013-04-04 05:20:00,
2013-04-04 00:25:00,42.1,37.6,30.10,NNW,338,3.4,6.9,84,0.03,,,0.02,WUHU216HW,2013-04-04 05:25:00,
2013-04-04 00:30:00,41.9,37.5,30.10,NNW,338,1.6,4.5,84,0.03,,,0.02,WUHU216HW,2013-04-04 05:30:00,
2013-04-04 00:36:00,42.1,37.6,30.10,North,0,3.4,4.3,84,0.03,,,0.02,WUHU216HW,2013-04-04 05:36:00,
2013-04-04 00:41:00,42.1,37.6,30.10,North,0,3.1,4.9,84,0.03,,,0.03,WUHU216HW,2013-04-04 05:41:00,
2013-04-04 00:46:00,42.1,37.6,30.10,North,0,1.8,4.9,84,0.03,,,0.03,WUHU216HW,2013-04-04 05:46:00,
2013-04-04 00:51:00,42.3,37.8,30.10,NNW,338,1.1,5.4,84,0.04,,,0.04,WUHU216HW,2013-04-04 05:51:00,
2013-04-04 19:00:00,60.3,37.0,30.01,NNW,338,4.0,4.0,42,0.00,,,0.04,WUHU216HW,2013-04-05 00:00:00,
2013-04-04 19:05:00,60.1,37.4,30.01,North,0,3.8,4.5,43,0.00,,,0.34,WUHU216HW,2013-04-05 00:05:00,
2013-04-04 19:10:00,59.9,37.3,30.01,WNW,293,2.5,6.3,43,0.00,,,0.34,WUHU216HW,2013-04-05 00:10:00,
2013-04-04 19:15:00,59.8,37.1,30.01,North,0,1.1,6.3,43,0.00,,,0.34,WUHU216HW,2013-04-05 00:15:00,
2013-04-04 19:20:00,59.8,37.1,30.01,NNW,338,2.5,2.5,43,0.00,,,0.34,WUHU216HW,2013-04-05 00:20:00,
2013-04-04 19:47:00,58.7,37.3,30.01,NNE,23,0.0,0.0,45,0.00,,,0.34,WUHU216HW,2013-04-05 00:47:00,
2013-04-04 19:52:00,58.7,37.3,30.01,North,0,1.3,1.3,45,0.00,,,0.34,WUHU216HW,2013-04-05 00:52:00,
2013-04-04 19:57:00,58.3,37.0,30.01,North,0,0.0,1.3,45,0.00,,,0.34,WUHU216HW,2013-04-05 00:57:00,
2013-04-04 20:02:00,58.0,37.3,30.01,North,0,0.0,1.1,46,0.00,,,0.34,WUHU216HW,2013-04-05 01:02:00,
2013-04-04 20:07:00,57.8,37.1,30.01,North,0,0.0,0.0,46,0.00,,,0.34,WUHU216HW,2013-04-05 01:07:00,
2013-04-04 20:12:00,57.4,37.4,30.01,North,0,0.0,0.0,47,0.00,,,0.34,WUHU216HW,2013-04-05 01:12:00,
2013-04-04 20:17:00,57.2,37.2,30.01,North,0,0.0,0.0,47,0.00,,,0.34,WUHU216HW,2013-04-05 01:17:00,
2013-04-04 20:22:00,56.9,37.4,30.01,North,0,0.0,0.0,48,0.00,,,0.34,WUHU216HW,2013-04-05 01:22:00,
2013-04-04 20:27:00,56.5,37.0,30.01,North,0,0.0,0.0,48,0.00,,,0.34,WUHU216HW,2013-04-05 01:27:00,
2013-04-04 20:32:00,56.3,37.5,30.01,North,0,0.0,0.0,49,0.00,,,0.34,WUHU216HW,2013-04-05 01:32:00,
2013-04-04 20:37:00,56.0,37.6,30.02,North,0,0.0,0.0,50,0.00,,,0.34,WUHU216HW,2013-04-05 01:37:00,
2013-04-04 20:42:00,55.8,37.4,30.02,North,0,0.4,0.9,50,0.00,,,0.34,WUHU216HW,2013-04-05 01:42:00,
2013-04-04 20:47:00,55.4,37.1,30.02,North,0,0.0,0.9,50,0.00,,,0.34,WUHU216HW,2013-04-05 01:47:00,
2013-04-04 20:52:00,55.1,36.7,30.03,North,0,0.0,0.2,50,0.00,,,0.34,WUHU216HW,2013-04-05 01:52:00,
2013-04-04 20:57:00,54.9,37.1,30.03,North,0,0.0,0.0,51,0.00,,,0.34,WUHU216HW,2013-04-05 01:57:00,
2013-04-04 21:02:00,54.5,36.7,30.03,North,0,0.0,0.0,51,0.00,,,0.34,WUHU216HW,2013-04-05 02:02:00,
2013-04-04 21:07:00,54.4,37.1,30.04,North,0,0.0,0.0,52,0.00,,,0.34,WUHU216HW,2013-04-05 02:07:00,
2013-04-04 21:12:00,54.2,36.9,30.04,North,0,0.0,0.0,52,0.00,,,0.34,WUHU216HW,2013-04-05 02:12:00,
2013-04-04 21:17:00,54.0,37.2,30.04,North,0,0.0,0.0,53,0.00,,,0.34,WUHU216HW,2013-04-05 02:17:00,
2013-04-04 21:22:00,53.6,36.9,30.04,North,0,0.0,0.0,53,0.00,,,0.34,WUHU216HW,2013-04-05 02:22:00,
2013-04-04 21:27:00,53.5,36.7,30.04,North,0,0.0,0.0,53,0.00,,,0.34,WUHU216HW,2013-04-05 02:27:00,
2013-04-04 21:32:00,53.3,37.0,30.04,North,0,0.0,0.0,54,0.00,,,0.34,WUHU216HW,2013-04-05 02:32:00,
2013-04-04 21:37:00,52.9,37.1,30.04,North,0,0.0,0.0,55,0.00,,,0.34,WUHU216HW,2013-04-05 02:37:00,
2013-04-04 21:42:00,52.7,36.9,30.04,North,0,0.0,0.0,55,0.00,,,0.34,WUHU216HW,2013-04-05 02:42:00,
2013-04-04 21:47:00,52.6,37.3,30.05,North,0,0.0,0.0,56,0.00,,,0.34,WUHU216HW,2013-04-05 02:47:00,
2013-04-04 21:52:00,52.4,37.1,30.04,North,0,0.0,0.0,56,0.00,,,0.34,WUHU216HW,2013-04-05 02:52:00,
2013-04-04 21:57:00,52.2,37.4,30.05,North,0,0.0,0.0,57,0.00,,,0.34,WUHU216HW,2013-04-05 02:57:00,
2013-04-04 22:02:00,51.8,37.0,30.05,North,0,0.0,0.0,57,0.00,,,0.34,WUHU216HW,2013-04-05 03:02:00,
2013-04-04 22:07:00,51.7,37.3,30.05,North,0,0.0,0.0,58,0.00,,,0.34,WUHU216HW,2013-04-05 03:07:00,
2013-04-04 22:12:00,51.5,37.1,30.05,North,0,0.0,0.0,58,0.00,,,0.34,WUHU216HW,2013-04-05 03:12:00,
2013-04-04 22:17:00,51.1,37.3,30.05,WNW,293,0.4,1.1,59,0.00,,,0.34,WUHU216HW,2013-04-05 03:17:00,
2013-04-04 22:22:00,50.8,36.9,30.05,WNW,293,0.0,1.1,59,0.00,,,0.34,WUHU216HW,2013-04-05 03:22:00,
2013-04-04 22:27:00,50.8,37.4,30.05,WNW,293,0.4,0.4,60,0.00,,,0.34,WUHU216HW,2013-04-05 03:27:00,
2013-04-04 22:32:00,50.4,37.1,30.06,WSW,248,1.8,2.5,60,0.00,,,0.34,WUHU216HW,2013-04-05 03:32:00,
2013-04-04 22:37:00,50.2,37.3,30.06,WSW,248,1.8,2.9,61,0.00,,,0.34,WUHU216HW,2013-04-05 03:37:00,
2013-04-04 22:42:00,50.0,37.1,30.06,West,270,2.0,2.9,61,0.00,,,0.34,WUHU216HW,2013-04-05 03:42:00,
2013-04-04 22:47:00,50.0,37.1,30.06,West,270,1.1,2.5,61,0.00,,,0.34,WUHU216HW,2013-04-05 03:47:00,
2013-04-04 22:52:00,49.9,37.0,30.06,WSW,248,1.8,2.7,61,0.00,,,0.34,WUHU216HW,2013-04-05 03:52:00,
2013-04-04 22:57:00,49.9,37.4,30.06,WNW,293,3.8,3.8,62,0.00,,,0.34,WUHU216HW,2013-04-05 03:57:00,
2013-04-04 23:00:00,49.9,37.4,30.06,WNW,293,3.1,3.8,62,0.00,,,0.34,WUHU216HW,2013-04-05 04:00:00,
2013-04-04 23:05:00,49.9,37.4,30.06,WSW,248,1.1,3.8,62,0.00,,,0.34,WUHU216HW,2013-04-05 04:05:00,
2013-04-04 23:10:00,49.9,37.4,30.07,West,270,1.1,2.9,62,0.00,,,0.34,WUHU216HW,2013-04-05 04:10:00,
2013-04-04 23:15:00,49.7,37.5,30.06,West,270,0.4,1.8,63,0.00,,,0.34,WUHU216HW,2013-04-05 04:15:00,
2013-04-04 23:20:00,49.7,37.5,30.06,West,270,0.7,1.3,63,0.00,,,0.34,WUHU216HW,2013-04-05 04:20:00,
2013-04-04 23:25:00,49.7,37.5,30.06,West,270,0.0,1.1,63,0.00,,,0.34,WUHU216HW,2013-04-05 04:25:00,
2013-04-04 23:30:00,49.5,37.5,30.06,West,270,0.0,0.9,63,0.00,,,0.34,WUHU216HW,2013-04-05 04:30:00,
2013-04-04 23:35:00,49.3,37.6,30.06,West,270,0.0,0.4,64,0.00,,,0.34,WUHU216HW,2013-04-05 04:35:00,
2013-04-04 23:40:00,49.1,37.4,30.06,West,270,0.0,0.0,64,0.00,,,0.34,WUHU216HW,2013-04-05 04:40:00,
2013-04-04 23:45:00,49.1,37.4,30.07,West,270,0.0,0.0,64,0.00,,,0.34,WUHU216HW,2013-04-05 04:45:00,
2013-04-04 23:50:00,49.0,37.3,30.07,West,270,0.0,0.0,64,0.00,,,0.34,WUHU216HW,2013-04-05 04:50:00,
2013-04-04 23:55:00,48.8,37.1,30.06,West,270,0.0,0.4,64,0.00,,,0.34,WUHU216HW,2013-04-05 04:55:00,